首页
METAR-TAF:

METAR-TAF

机场 :

滑铁卢, 艾奥瓦州, 美国

纬度: 42-33-16N, 经度: 092-24-04W, 海拔: 266米

当前天气观测

该预报发布于47分钟前的07:54 UTC
风速6节,风向西转西北
温度 -14°C
湿度 55%
气压 1018 hPa
能見度: 16.1公里
天空无云

METAR: KALO 100754Z AUTO 29006KT 10SM CLR M14/M21 A3007 RMK AO2 SLP200 T11391206

时间: 02:41 (08:41 UTC)

预报

该预报发布于3小时和21分钟前的05:20 UTC
预报有效从10日的 06点(UTC)到 11日的 06点(UTC)
风速13节,风向西转西北,有时为22节阵风
能見度: 10公里
散云层高于10000英尺
从 10日的 1600点(UTC)
风速9节,风向西北
能見度: 10公里
多云层高于5000英尺
从 10日的 1900点(UTC)
风速10节,风向西北,有时为15节阵风
能見度: 10公里
多云层高于7000英尺
从 10日的 2200点(UTC)
风速11节,风向西北,有时为15节阵风
能見度: 10公里
多云层高于25000英尺
从 11日的 0300点(UTC)
风速3节,风向多变
能見度: 10公里
天空无云

TAF: KALO 100520Z 1006/1106 30013G22KT P6SM SCT100 FM101600 31009KT P6SM BKN050 FM101900 31010G15KT P6SM BKN070 FM102200 31011G15KT P6SM BKN250 FM110300 VRB03KT P6SM SKC

超过4000个机场的气象观测和天气预报(METAR&TAF报告)。

可查询的气象台以黄色和红色小点在地图上表示。

将鼠标移到小点上方,可查看气象台名称。

然后点击查看天气观测和预报。

如需切换地图:点击带黑十字的绿色按钮放大地图;点击带横线的绿色按钮缩小地图;或者点击绿色箭头查看邻近地区的地图。


METAR-TAF: